<?xml version="1.0" encoding="UTF-8" standalone="no" ?>
<gpx xmlns="http://www.topografix.com/GPX/1/1" xmlns:xsi="http://www.w3.org/2001/XMLSchema-instance" xsi:schemaLocation="http://www.topografix.com/GPX/1/1 http://www.topografix.com/GPX/1/1/gpx.xsd" version="1.1" creator="VisuGPX - https://www.visugpx.com">
  <metadata>
    <name>2016-02-07 RANDO RAQUETTES RANRUPT &amp;#8211; LES HAUTS BOIS</name>
    <desc><![CDATA[2016-02-07 RANDO RAQUETTES RANRUPT – LES HAUTS BOIS par Lionel et Thierry]]></desc>
  </metadata>
  <trk>
    <name><![CDATA[OR-8036600--Ranrupt:2016-02-07 RANDO RAQUETTES RANRUPT – LES HAUTS BOIS]]></name>
    <trkseg>
      <trkpt lat="48.37423" lon="7.19864">
        <ele>512</ele>
        <time>2017-10-23T12:53:02Z</time>
      </trkpt>
      <trkpt lat="48.37415" lon="7.19812">
        <ele>511</ele>
        <time>2017-10-23T12:55:02Z</time>
      </trkpt>
      <trkpt lat="48.37402" lon="7.19866">
        <ele>512</ele>
        <time>2017-10-23T12:57:02Z</time>
      </trkpt>
      <trkpt lat="48.37387" lon="7.19898">
        <ele>512</ele>
        <time>2017-10-23T12:59:02Z</time>
      </trkpt>
      <trkpt lat="48.37363" lon="7.19928">
        <ele>512</ele>
        <time>2017-10-23T13:01:02Z</time>
      </trkpt>
      <trkpt lat="48.37313" lon="7.20017">
        <ele>519</ele>
        <time>2017-10-23T13:03:02Z</time>
      </trkpt>
      <trkpt lat="48.37295" lon="7.20038">
        <ele>522</ele>
        <time>2017-10-23T13:05:02Z</time>
      </trkpt>
      <trkpt lat="48.37279" lon="7.20066">
        <ele>525</ele>
        <time>2017-10-23T13:07:02Z</time>
      </trkpt>
      <trkpt lat="48.37256" lon="7.20099">
        <ele>529</ele>
        <time>2017-10-23T13:09:02Z</time>
      </trkpt>
      <trkpt lat="48.3723" lon="7.2014">
        <ele>535</ele>
        <time>2017-10-23T13:11:02Z</time>
      </trkpt>
      <trkpt lat="48.3704" lon="7.20205">
        <ele>556</ele>
        <time>2017-10-23T13:13:02Z</time>
      </trkpt>
      <trkpt lat="48.36992" lon="7.20232">
        <ele>560</ele>
        <time>2017-10-23T13:15:02Z</time>
      </trkpt>
      <trkpt lat="48.36976" lon="7.20277">
        <ele>565</ele>
        <time>2017-10-23T13:17:02Z</time>
      </trkpt>
      <trkpt lat="48.36961" lon="7.20348">
        <ele>573</ele>
        <time>2017-10-23T13:19:02Z</time>
      </trkpt>
      <trkpt lat="48.36931" lon="7.20411">
        <ele>574</ele>
        <time>2017-10-23T13:21:02Z</time>
      </trkpt>
      <trkpt lat="48.36881" lon="7.20552">
        <ele>587</ele>
        <time>2017-10-23T13:23:02Z</time>
      </trkpt>
      <trkpt lat="48.36819" lon="7.20671">
        <ele>589</ele>
        <time>2017-10-23T13:25:02Z</time>
      </trkpt>
      <trkpt lat="48.36792" lon="7.20677">
        <ele>589</ele>
        <time>2017-10-23T13:27:02Z</time>
      </trkpt>
      <trkpt lat="48.36768" lon="7.20683">
        <ele>588</ele>
        <time>2017-10-23T13:29:02Z</time>
      </trkpt>
      <trkpt lat="48.36755" lon="7.20698">
        <ele>588</ele>
        <time>2017-10-23T13:31:02Z</time>
      </trkpt>
      <trkpt lat="48.36744" lon="7.20716">
        <ele>587</ele>
        <time>2017-10-23T13:33:02Z</time>
      </trkpt>
      <trkpt lat="48.36733" lon="7.20746">
        <ele>585</ele>
        <time>2017-10-23T13:35:02Z</time>
      </trkpt>
      <trkpt lat="48.36732" lon="7.20765">
        <ele>585</ele>
        <time>2017-10-23T13:37:02Z</time>
      </trkpt>
      <trkpt lat="48.36728" lon="7.20772">
        <ele>584</ele>
        <time>2017-10-23T13:39:02Z</time>
      </trkpt>
      <trkpt lat="48.36732" lon="7.20781">
        <ele>585</ele>
        <time>2017-10-23T13:41:02Z</time>
      </trkpt>
      <trkpt lat="48.36804" lon="7.20964">
        <ele>615</ele>
        <time>2017-10-23T13:43:02Z</time>
      </trkpt>
      <trkpt lat="48.36856" lon="7.21129">
        <ele>638</ele>
        <time>2017-10-23T13:45:02Z</time>
      </trkpt>
      <trkpt lat="48.36871" lon="7.21229">
        <ele>646</ele>
        <time>2017-10-23T13:47:02Z</time>
      </trkpt>
      <trkpt lat="48.36889" lon="7.21292">
        <ele>656</ele>
        <time>2017-10-23T13:49:02Z</time>
      </trkpt>
      <trkpt lat="48.36896" lon="7.21359">
        <ele>658</ele>
        <time>2017-10-23T13:51:02Z</time>
      </trkpt>
      <trkpt lat="48.36945" lon="7.21474">
        <ele>682</ele>
        <time>2017-10-23T13:53:02Z</time>
      </trkpt>
      <trkpt lat="48.36976" lon="7.21546">
        <ele>696</ele>
        <time>2017-10-23T13:55:02Z</time>
      </trkpt>
      <trkpt lat="48.37015" lon="7.21635">
        <ele>712</ele>
        <time>2017-10-23T13:57:02Z</time>
      </trkpt>
      <trkpt lat="48.3705" lon="7.21749">
        <ele>710</ele>
        <time>2017-10-23T13:59:02Z</time>
      </trkpt>
      <trkpt lat="48.37075" lon="7.21813">
        <ele>707</ele>
        <time>2017-10-23T14:01:02Z</time>
      </trkpt>
      <trkpt lat="48.37097" lon="7.21859">
        <ele>700</ele>
        <time>2017-10-23T14:03:02Z</time>
      </trkpt>
      <trkpt lat="48.37119" lon="7.21885">
        <ele>696</ele>
        <time>2017-10-23T14:05:02Z</time>
      </trkpt>
      <trkpt lat="48.37144" lon="7.21899">
        <ele>697</ele>
        <time>2017-10-23T14:07:02Z</time>
      </trkpt>
      <trkpt lat="48.37171" lon="7.21909">
        <ele>699</ele>
        <time>2017-10-23T14:09:02Z</time>
      </trkpt>
      <trkpt lat="48.37194" lon="7.21913">
        <ele>700</ele>
        <time>2017-10-23T14:11:02Z</time>
      </trkpt>
      <trkpt lat="48.37203" lon="7.21899">
        <ele>701</ele>
        <time>2017-10-23T14:13:02Z</time>
      </trkpt>
      <trkpt lat="48.37213" lon="7.21898">
        <ele>701</ele>
        <time>2017-10-23T14:15:02Z</time>
      </trkpt>
      <trkpt lat="48.37214" lon="7.21919">
        <ele>701</ele>
        <time>2017-10-23T14:17:02Z</time>
      </trkpt>
      <trkpt lat="48.37234" lon="7.21934">
        <ele>702</ele>
        <time>2017-10-23T14:19:02Z</time>
      </trkpt>
      <trkpt lat="48.37243" lon="7.21954">
        <ele>704</ele>
        <time>2017-10-23T14:21:02Z</time>
      </trkpt>
      <trkpt lat="48.37242" lon="7.21971">
        <ele>705</ele>
        <time>2017-10-23T14:23:02Z</time>
      </trkpt>
      <trkpt lat="48.37259" lon="7.22005">
        <ele>708</ele>
        <time>2017-10-23T14:25:02Z</time>
      </trkpt>
      <trkpt lat="48.37269" lon="7.22044">
        <ele>709</ele>
        <time>2017-10-23T14:27:02Z</time>
      </trkpt>
      <trkpt lat="48.37271" lon="7.2208">
        <ele>710</ele>
        <time>2017-10-23T14:29:02Z</time>
      </trkpt>
      <trkpt lat="48.37279" lon="7.22108">
        <ele>711</ele>
        <time>2017-10-23T14:31:02Z</time>
      </trkpt>
      <trkpt lat="48.37288" lon="7.22119">
        <ele>711</ele>
        <time>2017-10-23T14:33:02Z</time>
      </trkpt>
      <trkpt lat="48.37298" lon="7.2215">
        <ele>713</ele>
        <time>2017-10-23T14:35:02Z</time>
      </trkpt>
      <trkpt lat="48.37303" lon="7.2219">
        <ele>716</ele>
        <time>2017-10-23T14:37:02Z</time>
      </trkpt>
      <trkpt lat="48.37298" lon="7.2221">
        <ele>718</ele>
        <time>2017-10-23T14:39:02Z</time>
      </trkpt>
      <trkpt lat="48.37303" lon="7.2225">
        <ele>721</ele>
        <time>2017-10-23T14:41:02Z</time>
      </trkpt>
      <trkpt lat="48.37311" lon="7.22359">
        <ele>732</ele>
        <time>2017-10-23T14:43:02Z</time>
      </trkpt>
      <trkpt lat="48.37307" lon="7.2242">
        <ele>738</ele>
        <time>2017-10-23T14:45:02Z</time>
      </trkpt>
      <trkpt lat="48.3731" lon="7.22487">
        <ele>742</ele>
        <time>2017-10-23T14:47:02Z</time>
      </trkpt>
      <trkpt lat="48.37319" lon="7.22539">
        <ele>746</ele>
        <time>2017-10-23T14:49:02Z</time>
      </trkpt>
      <trkpt lat="48.37327" lon="7.2262">
        <ele>750</ele>
        <time>2017-10-23T14:51:02Z</time>
      </trkpt>
      <trkpt lat="48.37325" lon="7.22667">
        <ele>748</ele>
        <time>2017-10-23T14:53:02Z</time>
      </trkpt>
      <trkpt lat="48.37318" lon="7.22702">
        <ele>744</ele>
        <time>2017-10-23T14:55:02Z</time>
      </trkpt>
      <trkpt lat="48.37324" lon="7.22739">
        <ele>743</ele>
        <time>2017-10-23T14:57:02Z</time>
      </trkpt>
      <trkpt lat="48.37335" lon="7.22761">
        <ele>743</ele>
        <time>2017-10-23T14:59:02Z</time>
      </trkpt>
      <trkpt lat="48.37353" lon="7.22768">
        <ele>741</ele>
        <time>2017-10-23T15:01:02Z</time>
      </trkpt>
      <trkpt lat="48.37355" lon="7.22823">
        <ele>739</ele>
        <time>2017-10-23T15:03:02Z</time>
      </trkpt>
      <trkpt lat="48.37378" lon="7.22849">
        <ele>739</ele>
        <time>2017-10-23T15:05:02Z</time>
      </trkpt>
      <trkpt lat="48.37407" lon="7.22971">
        <ele>749</ele>
        <time>2017-10-23T15:07:02Z</time>
      </trkpt>
      <trkpt lat="48.37424" lon="7.23085">
        <ele>751</ele>
        <time>2017-10-23T15:09:02Z</time>
      </trkpt>
      <trkpt lat="48.3743" lon="7.23158">
        <ele>748</ele>
        <time>2017-10-23T15:11:02Z</time>
      </trkpt>
      <trkpt lat="48.37413" lon="7.23321">
        <ele>755</ele>
        <time>2017-10-23T15:13:02Z</time>
      </trkpt>
      <trkpt lat="48.37401" lon="7.23327">
        <ele>753</ele>
        <time>2017-10-23T15:15:02Z</time>
      </trkpt>
      <trkpt lat="48.374" lon="7.23359">
        <ele>757</ele>
        <time>2017-10-23T15:17:02Z</time>
      </trkpt>
      <trkpt lat="48.37436" lon="7.2353">
        <ele>787</ele>
        <time>2017-10-23T15:19:02Z</time>
      </trkpt>
      <trkpt lat="48.37469" lon="7.23536">
        <ele>792</ele>
        <time>2017-10-23T15:21:02Z</time>
      </trkpt>
      <trkpt lat="48.37515" lon="7.23564">
        <ele>801</ele>
        <time>2017-10-23T15:23:02Z</time>
      </trkpt>
      <trkpt lat="48.37562" lon="7.236">
        <ele>804</ele>
        <time>2017-10-23T15:25:02Z</time>
      </trkpt>
      <trkpt lat="48.3763" lon="7.23674">
        <ele>814</ele>
        <time>2017-10-23T15:27:02Z</time>
      </trkpt>
      <trkpt lat="48.37663" lon="7.23715">
        <ele>821</ele>
        <time>2017-10-23T15:29:02Z</time>
      </trkpt>
      <trkpt lat="48.37695" lon="7.23812">
        <ele>830</ele>
        <time>2017-10-23T15:31:02Z</time>
      </trkpt>
      <trkpt lat="48.37711" lon="7.23848">
        <ele>834</ele>
        <time>2017-10-23T15:33:02Z</time>
      </trkpt>
      <trkpt lat="48.37755" lon="7.23916">
        <ele>848</ele>
        <time>2017-10-23T15:35:02Z</time>
      </trkpt>
      <trkpt lat="48.3778" lon="7.23965">
        <ele>857</ele>
        <time>2017-10-23T15:37:02Z</time>
      </trkpt>
      <trkpt lat="48.37796" lon="7.24016">
        <ele>865</ele>
        <time>2017-10-23T15:39:02Z</time>
      </trkpt>
      <trkpt lat="48.37807" lon="7.24121">
        <ele>876</ele>
        <time>2017-10-23T15:41:02Z</time>
      </trkpt>
      <trkpt lat="48.37813" lon="7.24184">
        <ele>879</ele>
        <time>2017-10-23T15:43:02Z</time>
      </trkpt>
      <trkpt lat="48.37833" lon="7.24237">
        <ele>884</ele>
        <time>2017-10-23T15:45:02Z</time>
      </trkpt>
      <trkpt lat="48.37836" lon="7.24227">
        <ele>887</ele>
        <time>2017-10-23T15:47:02Z</time>
      </trkpt>
      <trkpt lat="48.37839" lon="7.24119">
        <ele>892</ele>
        <time>2017-10-23T15:49:02Z</time>
      </trkpt>
      <trkpt lat="48.37843" lon="7.24042">
        <ele>892</ele>
        <time>2017-10-23T15:51:02Z</time>
      </trkpt>
      <trkpt lat="48.37821" lon="7.23948">
        <ele>879</ele>
        <time>2017-10-23T15:53:02Z</time>
      </trkpt>
      <trkpt lat="48.37796" lon="7.23851">
        <ele>868</ele>
        <time>2017-10-23T15:55:02Z</time>
      </trkpt>
      <trkpt lat="48.37764" lon="7.23765">
        <ele>853</ele>
        <time>2017-10-23T15:57:02Z</time>
      </trkpt>
      <trkpt lat="48.37797" lon="7.23729">
        <ele>857</ele>
        <time>2017-10-23T15:59:02Z</time>
      </trkpt>
      <trkpt lat="48.37847" lon="7.23697">
        <ele>863</ele>
        <time>2017-10-23T16:01:02Z</time>
      </trkpt>
      <trkpt lat="48.37923" lon="7.23665">
        <ele>864</ele>
        <time>2017-10-23T16:03:02Z</time>
      </trkpt>
      <trkpt lat="48.37992" lon="7.23665">
        <ele>864</ele>
        <time>2017-10-23T16:05:02Z</time>
      </trkpt>
      <trkpt lat="48.38067" lon="7.23669">
        <ele>878</ele>
        <time>2017-10-23T16:07:02Z</time>
      </trkpt>
      <trkpt lat="48.38095" lon="7.2363">
        <ele>875</ele>
        <time>2017-10-23T16:09:02Z</time>
      </trkpt>
      <trkpt lat="48.38112" lon="7.23553">
        <ele>865</ele>
        <time>2017-10-23T16:11:02Z</time>
      </trkpt>
      <trkpt lat="48.38141" lon="7.23441">
        <ele>857</ele>
        <time>2017-10-23T16:13:02Z</time>
      </trkpt>
      <trkpt lat="48.38191" lon="7.23368">
        <ele>857</ele>
        <time>2017-10-23T16:15:02Z</time>
      </trkpt>
      <trkpt lat="48.3829" lon="7.23368">
        <ele>871</ele>
        <time>2017-10-23T16:17:02Z</time>
      </trkpt>
      <trkpt lat="48.38346" lon="7.2336">
        <ele>876</ele>
        <time>2017-10-23T16:19:02Z</time>
      </trkpt>
      <trkpt lat="48.38396" lon="7.23336">
        <ele>877</ele>
        <time>2017-10-23T16:21:02Z</time>
      </trkpt>
      <trkpt lat="48.3844" lon="7.23311">
        <ele>877</ele>
        <time>2017-10-23T16:23:02Z</time>
      </trkpt>
      <trkpt lat="48.38509" lon="7.2329">
        <ele>880</ele>
        <time>2017-10-23T16:25:02Z</time>
      </trkpt>
      <trkpt lat="48.38513" lon="7.23221">
        <ele>866</ele>
        <time>2017-10-23T16:27:02Z</time>
      </trkpt>
      <trkpt lat="48.3848" lon="7.2312">
        <ele>849</ele>
        <time>2017-10-23T16:29:02Z</time>
      </trkpt>
      <trkpt lat="48.38468" lon="7.23065">
        <ele>843</ele>
        <time>2017-10-23T16:31:02Z</time>
      </trkpt>
      <trkpt lat="48.3848" lon="7.23007">
        <ele>841</ele>
        <time>2017-10-23T16:33:02Z</time>
      </trkpt>
      <trkpt lat="48.38493" lon="7.22959">
        <ele>840</ele>
        <time>2017-10-23T16:35:02Z</time>
      </trkpt>
      <trkpt lat="48.38491" lon="7.22895">
        <ele>839</ele>
        <time>2017-10-23T16:37:02Z</time>
      </trkpt>
      <trkpt lat="48.38449" lon="7.22842">
        <ele>829</ele>
        <time>2017-10-23T16:39:02Z</time>
      </trkpt>
      <trkpt lat="48.38426" lon="7.22791">
        <ele>822</ele>
        <time>2017-10-23T16:41:02Z</time>
      </trkpt>
      <trkpt lat="48.38416" lon="7.22718">
        <ele>821</ele>
        <time>2017-10-23T16:43:02Z</time>
      </trkpt>
      <trkpt lat="48.38422" lon="7.22628">
        <ele>819</ele>
        <time>2017-10-23T16:45:02Z</time>
      </trkpt>
      <trkpt lat="48.38434" lon="7.22536">
        <ele>815</ele>
        <time>2017-10-23T16:47:02Z</time>
      </trkpt>
      <trkpt lat="48.38392" lon="7.22596">
        <ele>804</ele>
        <time>2017-10-23T16:49:02Z</time>
      </trkpt>
      <trkpt lat="48.38372" lon="7.22671">
        <ele>799</ele>
        <time>2017-10-23T16:51:02Z</time>
      </trkpt>
      <trkpt lat="48.38364" lon="7.22748">
        <ele>797</ele>
        <time>2017-10-23T16:53:02Z</time>
      </trkpt>
      <trkpt lat="48.38356" lon="7.22804">
        <ele>794</ele>
        <time>2017-10-23T16:55:02Z</time>
      </trkpt>
      <trkpt lat="48.38362" lon="7.22879">
        <ele>802</ele>
        <time>2017-10-23T16:57:02Z</time>
      </trkpt>
      <trkpt lat="48.38357" lon="7.2292">
        <ele>806</ele>
        <time>2017-10-23T16:59:02Z</time>
      </trkpt>
      <trkpt lat="48.38332" lon="7.22939">
        <ele>804</ele>
        <time>2017-10-23T17:01:02Z</time>
      </trkpt>
      <trkpt lat="48.38288" lon="7.22954">
        <ele>791</ele>
        <time>2017-10-23T17:03:02Z</time>
      </trkpt>
      <trkpt lat="48.3827" lon="7.22982">
        <ele>788</ele>
        <time>2017-10-23T17:05:02Z</time>
      </trkpt>
      <trkpt lat="48.38285" lon="7.23034">
        <ele>799</ele>
        <time>2017-10-23T17:07:02Z</time>
      </trkpt>
      <trkpt lat="48.38275" lon="7.23068">
        <ele>801</ele>
        <time>2017-10-23T17:09:02Z</time>
      </trkpt>
      <trkpt lat="48.3824" lon="7.23085">
        <ele>798</ele>
        <time>2017-10-23T17:11:02Z</time>
      </trkpt>
      <trkpt lat="48.38202" lon="7.23085">
        <ele>795</ele>
        <time>2017-10-23T17:13:02Z</time>
      </trkpt>
      <trkpt lat="48.3823" lon="7.23038">
        <ele>789</ele>
        <time>2017-10-23T17:15:02Z</time>
      </trkpt>
      <trkpt lat="48.38255" lon="7.22999">
        <ele>786</ele>
        <time>2017-10-23T17:17:02Z</time>
      </trkpt>
      <trkpt lat="48.3825" lon="7.22956">
        <ele>779</ele>
        <time>2017-10-23T17:19:02Z</time>
      </trkpt>
      <trkpt lat="48.38263" lon="7.22922">
        <ele>778</ele>
        <time>2017-10-23T17:21:02Z</time>
      </trkpt>
      <trkpt lat="48.38285" lon="7.22896">
        <ele>782</ele>
        <time>2017-10-23T17:23:02Z</time>
      </trkpt>
      <trkpt lat="48.383" lon="7.2286">
        <ele>781</ele>
        <time>2017-10-23T17:25:02Z</time>
      </trkpt>
      <trkpt lat="48.38286" lon="7.22813">
        <ele>770</ele>
        <time>2017-10-23T17:27:02Z</time>
      </trkpt>
      <trkpt lat="48.38259" lon="7.22781">
        <ele>755</ele>
        <time>2017-10-23T17:29:02Z</time>
      </trkpt>
      <trkpt lat="48.38258" lon="7.22725">
        <ele>750</ele>
        <time>2017-10-23T17:31:02Z</time>
      </trkpt>
      <trkpt lat="48.38275" lon="7.22493">
        <ele>747</ele>
        <time>2017-10-23T17:33:02Z</time>
      </trkpt>
      <trkpt lat="48.38181" lon="7.22345">
        <ele>707</ele>
        <time>2017-10-23T17:35:02Z</time>
      </trkpt>
      <trkpt lat="48.3813" lon="7.22349">
        <ele>693</ele>
        <time>2017-10-23T17:37:02Z</time>
      </trkpt>
      <trkpt lat="48.38111" lon="7.22358">
        <ele>689</ele>
        <time>2017-10-23T17:39:02Z</time>
      </trkpt>
      <trkpt lat="48.381" lon="7.22365">
        <ele>686</ele>
        <time>2017-10-23T17:41:02Z</time>
      </trkpt>
      <trkpt lat="48.38085" lon="7.22346">
        <ele>681</ele>
        <time>2017-10-23T17:43:02Z</time>
      </trkpt>
      <trkpt lat="48.38069" lon="7.22331">
        <ele>677</ele>
        <time>2017-10-23T17:45:02Z</time>
      </trkpt>
      <trkpt lat="48.38079" lon="7.22272">
        <ele>674</ele>
        <time>2017-10-23T17:47:02Z</time>
      </trkpt>
      <trkpt lat="48.38069" lon="7.22303">
        <ele>675</ele>
        <time>2017-10-23T17:49:02Z</time>
      </trkpt>
      <trkpt lat="48.38107" lon="7.2238">
        <ele>689</ele>
        <time>2017-10-23T17:51:02Z</time>
      </trkpt>
      <trkpt lat="48.382" lon="7.22339">
        <ele>713</ele>
        <time>2017-10-23T17:53:02Z</time>
      </trkpt>
      <trkpt lat="48.38274" lon="7.22464">
        <ele>745</ele>
        <time>2017-10-23T17:55:02Z</time>
      </trkpt>
      <trkpt lat="48.3828" lon="7.22329">
        <ele>740</ele>
        <time>2017-10-23T17:57:02Z</time>
      </trkpt>
      <trkpt lat="48.38325" lon="7.22249">
        <ele>745</ele>
        <time>2017-10-23T17:59:02Z</time>
      </trkpt>
      <trkpt lat="48.38396" lon="7.22144">
        <ele>762</ele>
        <time>2017-10-23T18:01:02Z</time>
      </trkpt>
      <trkpt lat="48.38428" lon="7.21983">
        <ele>771</ele>
        <time>2017-10-23T18:03:02Z</time>
      </trkpt>
      <trkpt lat="48.38463" lon="7.21867">
        <ele>770</ele>
        <time>2017-10-23T18:05:02Z</time>
      </trkpt>
      <trkpt lat="48.38523" lon="7.21775">
        <ele>779</ele>
        <time>2017-10-23T18:07:02Z</time>
      </trkpt>
      <trkpt lat="48.38533" lon="7.21713">
        <ele>775</ele>
        <time>2017-10-23T18:09:02Z</time>
      </trkpt>
      <trkpt lat="48.38556" lon="7.2164">
        <ele>771</ele>
        <time>2017-10-23T18:11:02Z</time>
      </trkpt>
      <trkpt lat="48.38563" lon="7.21575">
        <ele>763</ele>
        <time>2017-10-23T18:13:02Z</time>
      </trkpt>
      <trkpt lat="48.38582" lon="7.21545">
        <ele>762</ele>
        <time>2017-10-23T18:15:02Z</time>
      </trkpt>
      <trkpt lat="48.38635" lon="7.21549">
        <ele>769</ele>
        <time>2017-10-23T18:17:02Z</time>
      </trkpt>
      <trkpt lat="48.38688" lon="7.21538">
        <ele>774</ele>
        <time>2017-10-23T18:19:02Z</time>
      </trkpt>
      <trkpt lat="48.38734" lon="7.21497">
        <ele>775</ele>
        <time>2017-10-23T18:21:02Z</time>
      </trkpt>
      <trkpt lat="48.38812" lon="7.21439">
        <ele>782</ele>
        <time>2017-10-23T18:23:02Z</time>
      </trkpt>
      <trkpt lat="48.38832" lon="7.21362">
        <ele>778</ele>
        <time>2017-10-23T18:25:02Z</time>
      </trkpt>
      <trkpt lat="48.3885" lon="7.21259">
        <ele>777</ele>
        <time>2017-10-23T18:27:02Z</time>
      </trkpt>
      <trkpt lat="48.38865" lon="7.2116">
        <ele>777</ele>
        <time>2017-10-23T18:29:02Z</time>
      </trkpt>
      <trkpt lat="48.38855" lon="7.21023">
        <ele>771</ele>
        <time>2017-10-23T18:31:02Z</time>
      </trkpt>
      <trkpt lat="48.3881" lon="7.20826">
        <ele>766</ele>
        <time>2017-10-23T18:33:02Z</time>
      </trkpt>
      <trkpt lat="48.38822" lon="7.20721">
        <ele>770</ele>
        <time>2017-10-23T18:35:02Z</time>
      </trkpt>
      <trkpt lat="48.38852" lon="7.20641">
        <ele>769</ele>
        <time>2017-10-23T18:37:02Z</time>
      </trkpt>
      <trkpt lat="48.38848" lon="7.20482">
        <ele>754</ele>
        <time>2017-10-23T18:39:02Z</time>
      </trkpt>
      <trkpt lat="48.38859" lon="7.20382">
        <ele>751</ele>
        <time>2017-10-23T18:41:02Z</time>
      </trkpt>
      <trkpt lat="48.3887" lon="7.20221">
        <ele>728</ele>
        <time>2017-10-23T18:43:02Z</time>
      </trkpt>
      <trkpt lat="48.38848" lon="7.20173">
        <ele>727</ele>
        <time>2017-10-23T18:45:02Z</time>
      </trkpt>
      <trkpt lat="48.38806" lon="7.20113">
        <ele>725</ele>
        <time>2017-10-23T18:47:02Z</time>
      </trkpt>
      <trkpt lat="48.38763" lon="7.20049">
        <ele>724</ele>
        <time>2017-10-23T18:49:02Z</time>
      </trkpt>
      <trkpt lat="48.38705" lon="7.2">
        <ele>715</ele>
        <time>2017-10-23T18:51:02Z</time>
      </trkpt>
      <trkpt lat="48.38669" lon="7.19961">
        <ele>708</ele>
        <time>2017-10-23T18:53:02Z</time>
      </trkpt>
      <trkpt lat="48.38649" lon="7.19867">
        <ele>705</ele>
        <time>2017-10-23T18:55:02Z</time>
      </trkpt>
      <trkpt lat="48.38621" lon="7.19779">
        <ele>695</ele>
        <time>2017-10-23T18:57:02Z</time>
      </trkpt>
      <trkpt lat="48.38597" lon="7.19721">
        <ele>689</ele>
        <time>2017-10-23T18:59:02Z</time>
      </trkpt>
      <trkpt lat="48.38554" lon="7.19633">
        <ele>678</ele>
        <time>2017-10-23T19:01:02Z</time>
      </trkpt>
      <trkpt lat="48.38525" lon="7.19566">
        <ele>670</ele>
        <time>2017-10-23T19:03:02Z</time>
      </trkpt>
      <trkpt lat="48.38545" lon="7.19534">
        <ele>672</ele>
        <time>2017-10-23T19:05:02Z</time>
      </trkpt>
      <trkpt lat="48.38585" lon="7.19491">
        <ele>673</ele>
        <time>2017-10-23T19:07:02Z</time>
      </trkpt>
      <trkpt lat="48.38621" lon="7.19472">
        <ele>671</ele>
        <time>2017-10-23T19:09:02Z</time>
      </trkpt>
      <trkpt lat="48.38632" lon="7.1944">
        <ele>664</ele>
        <time>2017-10-23T19:11:02Z</time>
      </trkpt>
      <trkpt lat="48.38558" lon="7.19437">
        <ele>658</ele>
        <time>2017-10-23T19:13:02Z</time>
      </trkpt>
      <trkpt lat="48.38496" lon="7.19407">
        <ele>648</ele>
        <time>2017-10-23T19:15:02Z</time>
      </trkpt>
      <trkpt lat="48.38443" lon="7.19373">
        <ele>631</ele>
        <time>2017-10-23T19:17:02Z</time>
      </trkpt>
      <trkpt lat="48.38409" lon="7.19379">
        <ele>628</ele>
        <time>2017-10-23T19:19:02Z</time>
      </trkpt>
      <trkpt lat="48.38387" lon="7.19405">
        <ele>625</ele>
        <time>2017-10-23T19:21:02Z</time>
      </trkpt>
      <trkpt lat="48.38376" lon="7.19446">
        <ele>625</ele>
        <time>2017-10-23T19:23:02Z</time>
      </trkpt>
      <trkpt lat="48.38367" lon="7.19523">
        <ele>622</ele>
        <time>2017-10-23T19:25:02Z</time>
      </trkpt>
      <trkpt lat="48.38346" lon="7.19667">
        <ele>606</ele>
        <time>2017-10-23T19:27:02Z</time>
      </trkpt>
      <trkpt lat="48.38349" lon="7.19716">
        <ele>601</ele>
        <time>2017-10-23T19:29:02Z</time>
      </trkpt>
      <trkpt lat="48.38373" lon="7.19781">
        <ele>601</ele>
        <time>2017-10-23T19:31:02Z</time>
      </trkpt>
      <trkpt lat="48.38376" lon="7.19871">
        <ele>596</ele>
        <time>2017-10-23T19:33:02Z</time>
      </trkpt>
      <trkpt lat="48.38364" lon="7.19927">
        <ele>592</ele>
        <time>2017-10-23T19:35:02Z</time>
      </trkpt>
      <trkpt lat="48.38342" lon="7.19961">
        <ele>586</ele>
        <time>2017-10-23T19:37:02Z</time>
      </trkpt>
      <trkpt lat="48.38332" lon="7.20021">
        <ele>583</ele>
        <time>2017-10-23T19:39:02Z</time>
      </trkpt>
      <trkpt lat="48.38327" lon="7.20098">
        <ele>581</ele>
        <time>2017-10-23T19:41:02Z</time>
      </trkpt>
      <trkpt lat="48.38299" lon="7.20169">
        <ele>577</ele>
        <time>2017-10-23T19:43:02Z</time>
      </trkpt>
      <trkpt lat="48.38282" lon="7.20223">
        <ele>577</ele>
        <time>2017-10-23T19:45:02Z</time>
      </trkpt>
      <trkpt lat="48.38265" lon="7.20279">
        <ele>579</ele>
        <time>2017-10-23T19:47:02Z</time>
      </trkpt>
      <trkpt lat="48.38215" lon="7.20332">
        <ele>584</ele>
        <time>2017-10-23T19:49:02Z</time>
      </trkpt>
      <trkpt lat="48.38175" lon="7.20304">
        <ele>580</ele>
        <time>2017-10-23T19:51:02Z</time>
      </trkpt>
      <trkpt lat="48.38124" lon="7.20291">
        <ele>579</ele>
        <time>2017-10-23T19:53:02Z</time>
      </trkpt>
      <trkpt lat="48.38071" lon="7.20264">
        <ele>579</ele>
        <time>2017-10-23T19:55:02Z</time>
      </trkpt>
      <trkpt lat="48.38015" lon="7.20261">
        <ele>582</ele>
        <time>2017-10-23T19:57:02Z</time>
      </trkpt>
      <trkpt lat="48.37954" lon="7.20268">
        <ele>583</ele>
        <time>2017-10-23T19:59:02Z</time>
      </trkpt>
      <trkpt lat="48.3789" lon="7.20259">
        <ele>579</ele>
        <time>2017-10-23T20:01:02Z</time>
      </trkpt>
      <trkpt lat="48.3781" lon="7.20208">
        <ele>564</ele>
        <time>2017-10-23T20:03:02Z</time>
      </trkpt>
      <trkpt lat="48.3778" lon="7.20193">
        <ele>559</ele>
        <time>2017-10-23T20:05:02Z</time>
      </trkpt>
      <trkpt lat="48.37739" lon="7.20214">
        <ele>551</ele>
        <time>2017-10-23T20:07:02Z</time>
      </trkpt>
      <trkpt lat="48.37743" lon="7.20285">
        <ele>551</ele>
        <time>2017-10-23T20:09:02Z</time>
      </trkpt>
      <trkpt lat="48.37723" lon="7.20313">
        <ele>547</ele>
        <time>2017-10-23T20:11:02Z</time>
      </trkpt>
      <trkpt lat="48.37672" lon="7.20281">
        <ele>538</ele>
        <time>2017-10-23T20:13:02Z</time>
      </trkpt>
      <trkpt lat="48.37609" lon="7.20266">
        <ele>530</ele>
        <time>2017-10-23T20:15:02Z</time>
      </trkpt>
      <trkpt lat="48.37619" lon="7.20214">
        <ele>531</ele>
        <time>2017-10-23T20:17:02Z</time>
      </trkpt>
      <trkpt lat="48.37578" lon="7.20137">
        <ele>524</ele>
        <time>2017-10-23T20:19:02Z</time>
      </trkpt>
      <trkpt lat="48.37529" lon="7.20002">
        <ele>517</ele>
        <time>2017-10-23T20:21:02Z</time>
      </trkpt>
      <trkpt lat="48.37489" lon="7.19879">
        <ele>512</ele>
        <time>2017-10-23T20:23:02Z</time>
      </trkpt>
      <trkpt lat="48.37462" lon="7.19876">
        <ele>512</ele>
        <time>2017-10-23T20:25:02Z</time>
      </trkpt>
      <trkpt lat="48.37444" lon="7.19857">
        <ele>511</ele>
        <time>2017-10-23T20:27:02Z</time>
      </trkpt>
      <trkpt lat="48.37428" lon="7.19835">
        <ele>511</ele>
        <time>2017-10-23T20:29:02Z</time>
      </trkpt>
      <trkpt lat="48.37421" lon="7.19822">
        <ele>511</ele>
        <time>2017-10-23T20:31:02Z</time>
      </trkpt>
    </trkseg>
  </trk>
</gpx>